sensor_id;sensor_type;location;lat;lon;timestamp;pressure;altitude;pressure_sealevel;temperature;humidity
40872;BME280;26591;43.264;26.940;2022-11-15T00:00:06;99777.06;;;8.37;78.20
40872;BME280;26591;43.264;26.940;2022-11-15T00:02:32;99773.06;;;8.43;77.45
40872;BME280;26591;43.264;26.940;2022-11-15T00:04:57;99770.13;;;8.46;77.49
40872;BME280;26591;43.264;26.940;2022-11-15T00:07:23;99772.09;;;8.44;77.50
40872;BME280;26591;43.264;26.940;2022-11-15T00:09:48;99769.38;;;8.55;77.31
40872;BME280;26591;43.264;26.940;2022-11-15T00:12:14;99764.81;;;8.67;76.88
40872;BME280;26591;43.264;26.940;2022-11-15T00:14:41;99763.44;;;8.73;76.84
40872;BME280;26591;43.264;26.940;2022-11-15T00:17:06;99763.44;;;8.83;76.65
40872;BME280;26591;43.264;26.940;2022-11-15T00:19:32;99765.41;;;8.81;76.16
40872;BME280;26591;43.264;26.940;2022-11-15T00:21:58;99758.03;;;8.94;76.08
40872;BME280;26591;43.264;26.940;2022-11-15T00:24:24;99758.72;;;8.77;75.59
40872;BME280;26591;43.264;26.940;2022-11-15T00:26:49;99753.88;;;8.82;75.95
40872;BME280;26591;43.264;26.940;2022-11-15T00:29:15;99752.03;;;8.73;75.61
40872;BME280;26591;43.264;26.940;2022-11-15T00:31:40;99760.94;;;8.81;75.45
40872;BME280;26591;43.264;26.940;2022-11-15T00:34:09;99749.13;;;8.76;75.21
40872;BME280;26591;43.264;26.940;2022-11-15T00:36:34;99755.09;;;8.78;75.28
40872;BME280;26591;43.264;26.940;2022-11-15T00:39:00;99750.75;;;8.57;75.48
40872;BME280;26591;43.264;26.940;2022-11-15T00:41:25;99749.97;;;8.66;75.54
40872;BME280;26591;43.264;26.940;2022-11-15T00:43:51;99753.38;;;8.57;75.46
40872;BME280;26591;43.264;26.940;2022-11-15T00:46:16;99746.28;;;8.48;75.38
40872;BME280;26591;43.264;26.940;2022-11-15T00:48:42;99756.19;;;8.65;75.72
40872;BME280;26591;43.264;26.940;2022-11-15T00:51:07;99744.69;;;8.66;74.94
40872;BME280;26591;43.264;26.940;2022-11-15T00:53:33;99751.31;;;8.70;75.26
40872;BME280;26591;43.264;26.940;2022-11-15T00:55:59;99749.53;;;8.71;75.52
40872;BME280;26591;43.264;26.940;2022-11-15T00:58:24;99748.13;;;8.57;75.49
40872;BME280;26591;43.264;26.940;2022-11-15T01:00:50;99748.53;;;8.52;75.15
40872;BME280;26591;43.264;26.940;2022-11-15T01:03:15;99743.94;;;8.54;75.42
40872;BME280;26591;43.264;26.940;2022-11-15T01:05:41;99733.81;;;8.50;75.50
40872;BME280;26591;43.264;26.940;2022-11-15T01:08:17;99734.50;;;8.62;75.10
40872;BME280;26591;43.264;26.940;2022-11-15T01:10:43;99727.69;;;8.49;75.14
40872;BME280;26591;43.264;26.940;2022-11-15T01:13:08;99732.16;;;8.68;75.31
40872;BME280;26591;43.264;26.940;2022-11-15T01:15:34;99727.00;;;8.57;75.56
40872;BME280;26591;43.264;26.940;2022-11-15T01:17:59;99723.28;;;8.69;75.05
40872;BME280;26591;43.264;26.940;2022-11-15T01:20:25;99723.13;;;8.61;75.15
40872;BME280;26591;43.264;26.940;2022-11-15T01:22:50;99732.69;;;8.52;74.86
40872;BME280;26591;43.264;26.940;2022-11-15T01:25:16;99730.88;;;8.53;75.42
40872;BME280;26591;43.264;26.940;2022-11-15T01:27:41;99730.22;;;8.51;75.79
40872;BME280;26591;43.264;26.940;2022-11-15T01:30:07;99727.84;;;8.48;75.08
40872;BME280;26591;43.264;26.940;2022-11-15T01:32:33;99732.97;;;8.49;75.41
40872;BME280;26591;43.264;26.940;2022-11-15T01:35:24;99721.25;;;8.32;75.62
40872;BME280;26591;43.264;26.940;2022-11-15T01:37:49;99726.66;;;8.31;75.76
40872;BME280;26591;43.264;26.940;2022-11-15T01:40:15;99729.38;;;8.19;76.43
40872;BME280;26591;43.264;26.940;2022-11-15T01:42:40;99730.53;;;8.27;76.18
40872;BME280;26591;43.264;26.940;2022-11-15T01:45:14;99725.94;;;8.38;75.88
40872;BME280;26591;43.264;26.940;2022-11-15T01:47:46;99719.78;;;8.49;75.81
40872;BME280;26591;43.264;26.940;2022-11-15T01:50:16;99720.31;;;8.53;75.12
40872;BME280;26591;43.264;26.940;2022-11-15T01:52:42;99718.69;;;8.52;75.54
40872;BME280;26591;43.264;26.940;2022-11-15T01:55:31;99717.00;;;8.61;75.03
40872;BME280;26591;43.264;26.940;2022-11-15T01:57:59;99716.75;;;8.74;74.26
40872;BME280;26591;43.264;26.940;2022-11-15T02:00:27;99711.22;;;8.77;74.95
40872;BME280;26591;43.264;26.940;2022-11-15T02:02:53;99716.31;;;8.68;74.90
40872;BME280;26591;43.264;26.940;2022-11-15T02:05:18;99711.34;;;8.65;74.48
40872;BME280;26591;43.264;26.940;2022-11-15T02:07:44;99708.13;;;8.62;74.56
40872;BME280;26591;43.264;26.940;2022-11-15T02:10:18;99703.97;;;8.69;74.32
40872;BME280;26591;43.264;26.940;2022-11-15T02:12:44;99709.13;;;8.80;74.41
40872;BME280;26591;43.264;26.940;2022-11-15T02:15:11;99700.09;;;8.63;74.55
40872;BME280;26591;43.264;26.940;2022-11-15T02:20:40;99692.59;;;8.59;74.65
40872;BME280;26591;43.264;26.940;2022-11-15T02:23:52;99692.72;;;8.57;74.84
40872;BME280;26591;43.264;26.940;2022-11-15T02:29:11;99691.59;;;8.69;75.09
40872;BME280;26591;43.264;26.940;2022-11-15T02:31:56;99683.94;;;8.47;75.08
40872;BME280;26591;43.264;26.940;2022-11-15T02:37:58;99686.47;;;8.58;74.97
40872;BME280;26591;43.264;26.940;2022-11-15T02:40:37;99690.22;;;8.55;75.38
40872;BME280;26591;43.264;26.940;2022-11-15T02:43:10;99698.53;;;8.61;74.80
40872;BME280;26591;43.264;26.940;2022-11-15T02:46:04;99691.00;;;8.46;75.57
40872;BME280;26591;43.264;26.940;2022-11-15T02:48:33;99689.03;;;8.38;75.55
40872;BME280;26591;43.264;26.940;2022-11-15T02:50:59;99689.66;;;8.52;75.33
40872;BME280;26591;43.264;26.940;2022-11-15T02:53:25;99676.59;;;8.50;75.44
40872;BME280;26591;43.264;26.940;2022-11-15T02:55:56;99684.88;;;8.36;75.31
40872;BME280;26591;43.264;26.940;2022-11-15T03:02:12;99685.06;;;8.54;75.92
40872;BME280;26591;43.264;26.940;2022-11-15T03:06:52;99672.31;;;8.59;75.79
40872;BME280;26591;43.264;26.940;2022-11-15T03:09:34;99680.78;;;8.73;75.34
40872;BME280;26591;43.264;26.940;2022-11-15T03:12:07;99686.91;;;8.73;74.88
40872;BME280;26591;43.264;26.940;2022-11-15T03:14:56;99681.91;;;8.80;74.50
40872;BME280;26591;43.264;26.940;2022-11-15T03:17:49;99678.28;;;8.61;75.16
40872;BME280;26591;43.264;26.940;2022-11-15T03:20:18;99672.84;;;8.53;74.93
40872;BME280;26591;43.264;26.940;2022-11-15T03:22:50;99676.59;;;8.50;74.37
40872;BME280;26591;43.264;26.940;2022-11-15T03:25:19;99680.63;;;8.54;75.26
40872;BME280;26591;43.264;26.940;2022-11-15T03:27:53;99669.31;;;8.33;75.34
40872;BME280;26591;43.264;26.940;2022-11-15T03:30:20;99668.09;;;8.47;75.46
40872;BME280;26591;43.264;26.940;2022-11-15T03:33:04;99665.94;;;8.52;75.75
40872;BME280;26591;43.264;26.940;2022-11-15T03:35:34;99667.00;;;8.49;75.59
40872;BME280;26591;43.264;26.940;2022-11-15T03:38:16;99663.28;;;8.62;74.77
40872;BME280;26591;43.264;26.940;2022-11-15T03:40:47;99660.06;;;8.58;75.25
40872;BME280;26591;43.264;26.940;2022-11-15T03:43:26;99659.94;;;8.69;74.53
40872;BME280;26591;43.264;26.940;2022-11-15T03:47:00;99649.34;;;8.40;75.40
40872;BME280;26591;43.264;26.940;2022-11-15T03:49:11;99656.31;;;8.61;74.64
40872;BME280;26591;43.264;26.940;2022-11-15T03:51:39;99644.50;;;8.55;74.57
40872;BME280;26591;43.264;26.940;2022-11-15T03:54:05;99639.53;;;8.72;74.25
40872;BME280;26591;43.264;26.940;2022-11-15T03:56:31;99636.22;;;8.60;74.40
40872;BME280;26591;43.264;26.940;2022-11-15T03:58:59;99636.50;;;8.66;74.50
40872;BME280;26591;43.264;26.940;2022-11-15T04:01:25;99638.53;;;8.53;74.47
40872;BME280;26591;43.264;26.940;2022-11-15T04:03:51;99631.47;;;8.53;74.17
40872;BME280;26591;43.264;26.940;2022-11-15T04:06:16;99635.09;;;8.62;74.54
40872;BME280;26591;43.264;26.940;2022-11-15T04:08:42;99636.16;;;8.30;74.29
40872;BME280;26591;43.264;26.940;2022-11-15T04:11:07;99627.81;;;8.45;74.26
40872;BME280;26591;43.264;26.940;2022-11-15T04:13:33;99629.25;;;8.49;74.61
40872;BME280;26591;43.264;26.940;2022-11-15T04:15:59;99628.84;;;8.53;74.06
40872;BME280;26591;43.264;26.940;2022-11-15T04:18:24;99622.44;;;8.66;74.49
40872;BME280;26591;43.264;26.940;2022-11-15T04:20:50;99624.81;;;8.79;73.97
40872;BME280;26591;43.264;26.940;2022-11-15T04:23:37;99620.34;;;8.89;74.06
40872;BME280;26591;43.264;26.940;2022-11-15T04:26:22;99623.41;;;8.55;73.98
40872;BME280;26591;43.264;26.940;2022-11-15T04:28:48;99626.31;;;8.62;73.82
40872;BME280;26591;43.264;26.940;2022-11-15T04:31:32;99623.28;;;8.66;73.46
40872;BME280;26591;43.264;26.940;2022-11-15T04:33:58;99621.47;;;8.77;73.51
40872;BME280;26591;43.264;26.940;2022-11-15T04:36:24;99625.78;;;8.88;73.25
40872;BME280;26591;43.264;26.940;2022-11-15T04:39:08;99627.72;;;8.76;73.32
40872;BME280;26591;43.264;26.940;2022-11-15T04:41:34;99622.16;;;8.49;73.80
40872;BME280;26591;43.264;26.940;2022-11-15T04:44:06;99621.75;;;8.74;73.25
40872;BME280;26591;43.264;26.940;2022-11-15T04:46:31;99624.81;;;8.69;74.70
40872;BME280;26591;43.264;26.940;2022-11-15T04:48:57;99619.25;;;8.82;73.64
40872;BME280;26591;43.264;26.940;2022-11-15T04:51:22;99616.88;;;8.89;73.51
40872;BME280;26591;43.264;26.940;2022-11-15T04:54:11;99612.97;;;8.83;73.83
40872;BME280;26591;43.264;26.940;2022-11-15T04:56:37;99615.78;;;8.91;73.73
40872;BME280;26591;43.264;26.940;2022-11-15T04:59:02;99615.06;;;8.99;73.41
40872;BME280;26591;43.264;26.940;2022-11-15T05:01:28;99618.56;;;8.60;74.13
40872;BME280;26591;43.264;26.940;2022-11-15T05:03:54;99616.19;;;8.77;73.88
40872;BME280;26591;43.264;26.940;2022-11-15T05:06:38;99616.03;;;8.98;73.59
40872;BME280;26591;43.264;26.940;2022-11-15T05:09:04;99607.69;;;9.03;73.21
40872;BME280;26591;43.264;26.940;2022-11-15T05:11:29;99612.84;;;9.04;73.38
40872;BME280;26591;43.264;26.940;2022-11-15T05:13:55;99607.81;;;9.11;72.64
40872;BME280;26591;43.264;26.940;2022-11-15T05:16:21;99618.22;;;9.22;73.00
40872;BME280;26591;43.264;26.940;2022-11-15T05:18:46;99616.28;;;9.14;72.20
40872;BME280;26591;43.264;26.940;2022-11-15T05:21:15;99617.53;;;9.10;72.52
40872;BME280;26591;43.264;26.940;2022-11-15T05:23:41;99612.94;;;9.22;71.71
40872;BME280;26591;43.264;26.940;2022-11-15T05:26:08;99617.75;;;9.37;71.74
40872;BME280;26591;43.264;26.940;2022-11-15T05:28:34;99612.47;;;9.37;71.20
40872;BME280;26591;43.264;26.940;2022-11-15T05:31:08;99608.47;;;9.23;71.21
40872;BME280;26591;43.264;26.940;2022-11-15T05:33:34;99611.94;;;9.23;71.37
40872;BME280;26591;43.264;26.940;2022-11-15T05:38:52;99617.94;;;9.15;71.13
40872;BME280;26591;43.264;26.940;2022-11-15T05:41:21;99610.84;;;9.16;70.71
40872;BME280;26591;43.264;26.940;2022-11-15T05:43:49;99608.16;;;9.36;70.93
40872;BME280;26591;43.264;26.940;2022-11-15T05:46:15;99612.22;;;9.30;70.83
40872;BME280;26591;43.264;26.940;2022-11-15T05:48:45;99609.94;;;9.35;71.65
40872;BME280;26591;43.264;26.940;2022-11-15T05:51:13;99616.19;;;9.44;70.18
40872;BME280;26591;43.264;26.940;2022-11-15T05:53:40;99609.53;;;9.40;70.36
40872;BME280;26591;43.264;26.940;2022-11-15T05:56:06;99613.75;;;9.60;69.28
40872;BME280;26591;43.264;26.940;2022-11-15T05:58:33;99615.31;;;9.63;69.98
40872;BME280;26591;43.264;26.940;2022-11-15T06:00:59;99614.84;;;9.68;69.61
40872;BME280;26591;43.264;26.940;2022-11-15T06:03:25;99616.66;;;9.67;69.05
40872;BME280;26591;43.264;26.940;2022-11-15T06:05:50;99611.59;;;9.74;69.16
40872;BME280;26591;43.264;26.940;2022-11-15T06:08:16;99617.47;;;9.77;68.48
40872;BME280;26591;43.264;26.940;2022-11-15T06:10:41;99623.50;;;9.60;69.44
40872;BME280;26591;43.264;26.940;2022-11-15T06:13:07;99613.56;;;9.72;68.99
40872;BME280;26591;43.264;26.940;2022-11-15T06:15:33;99619.75;;;9.90;68.68
40872;BME280;26591;43.264;26.940;2022-11-15T06:18:00;99618.75;;;9.64;70.06
40872;BME280;26591;43.264;26.940;2022-11-15T06:20:27;99620.50;;;9.45;71.58
40872;BME280;26591;43.264;26.940;2022-11-15T06:23:00;99623.72;;;9.39;72.13
40872;BME280;26591;43.264;26.940;2022-11-15T06:25:27;99625.97;;;9.24;72.88
40872;BME280;26591;43.264;26.940;2022-11-15T06:27:57;99627.03;;;8.74;74.30
40872;BME280;26591;43.264;26.940;2022-11-15T06:30:24;99628.00;;;8.92;74.68
40872;BME280;26591;43.264;26.940;2022-11-15T06:32:50;99623.16;;;8.78;75.30
40872;BME280;26591;43.264;26.940;2022-11-15T06:35:16;99629.50;;;8.95;75.14
40872;BME280;26591;43.264;26.940;2022-11-15T06:37:42;99636.84;;;8.42;76.33
40872;BME280;26591;43.264;26.940;2022-11-15T06:40:09;99632.88;;;8.67;76.63
40872;BME280;26591;43.264;26.940;2022-11-15T06:42:35;99638.66;;;9.00;76.10
40872;BME280;26591;43.264;26.940;2022-11-15T06:45:01;99633.94;;;8.45;76.88
40872;BME280;26591;43.264;26.940;2022-11-15T06:47:27;99632.72;;;8.89;76.23
40872;BME280;26591;43.264;26.940;2022-11-15T06:49:53;99635.59;;;9.15;76.05
40872;BME280;26591;43.264;26.940;2022-11-15T06:52:18;99631.41;;;9.70;76.80
40872;BME280;26591;43.264;26.940;2022-11-15T06:54:44;99635.84;;;10.97;79.29
40872;BME280;26591;43.264;26.940;2022-11-15T06:57:10;99639.31;;;11.85;77.55
40872;BME280;26591;43.264;26.940;2022-11-15T06:59:36;99642.81;;;12.29;73.37
40872;BME280;26591;43.264;26.940;2022-11-15T07:02:02;99646.25;;;12.13;71.15
40872;BME280;26591;43.264;26.940;2022-11-15T07:04:27;99640.78;;;11.80;68.61
40872;BME280;26591;43.264;26.940;2022-11-15T07:06:53;99635.19;;;10.77;68.91
40872;BME280;26591;43.264;26.940;2022-11-15T07:09:18;99631.13;;;10.47;69.66
40872;BME280;26591;43.264;26.940;2022-11-15T07:11:44;99630.59;;;10.15;70.48
40872;BME280;26591;43.264;26.940;2022-11-15T07:14:09;99630.94;;;10.02;71.52
40872;BME280;26591;43.264;26.940;2022-11-15T07:16:36;99629.91;;;9.85;71.62
40872;BME280;26591;43.264;26.940;2022-11-15T07:19:01;99626.28;;;9.58;73.02
40872;BME280;26591;43.264;26.940;2022-11-15T07:21:27;99628.16;;;9.38;73.30
40872;BME280;26591;43.264;26.940;2022-11-15T07:23:52;99625.03;;;9.05;75.21
40872;BME280;26591;43.264;26.940;2022-11-15T07:26:18;99622.56;;;8.94;75.45
40872;BME280;26591;43.264;26.940;2022-11-15T07:28:43;99624.72;;;9.28;74.60
40872;BME280;26591;43.264;26.940;2022-11-15T07:31:09;99627.41;;;9.56;74.31
40872;BME280;26591;43.264;26.940;2022-11-15T07:33:35;99620.72;;;9.61;73.58
40872;BME280;26591;43.264;26.940;2022-11-15T07:36:05;99626.50;;;9.27;74.33
40872;BME280;26591;43.264;26.940;2022-11-15T07:38:32;99626.66;;;9.36;73.89
40872;BME280;26591;43.264;26.940;2022-11-15T07:41:03;99629.72;;;9.31;73.71
40872;BME280;26591;43.264;26.940;2022-11-15T07:43:29;99623.63;;;9.58;73.57
40872;BME280;26591;43.264;26.940;2022-11-15T07:45:58;99622.66;;;9.59;73.02
40872;BME280;26591;43.264;26.940;2022-11-15T07:48:23;99618.31;;;9.68;73.30
40872;BME280;26591;43.264;26.940;2022-11-15T07:50:49;99616.81;;;9.66;72.74
40872;BME280;26591;43.264;26.940;2022-11-15T07:53:14;99618.84;;;9.72;72.86
40872;BME280;26591;43.264;26.940;2022-11-15T07:55:41;99612.97;;;9.50;73.15
40872;BME280;26591;43.264;26.940;2022-11-15T07:58:09;99622.03;;;9.48;73.06
40872;BME280;26591;43.264;26.940;2022-11-15T08:00:35;99617.34;;;9.31;74.08
40872;BME280;26591;43.264;26.940;2022-11-15T08:05:27;99616.19;;;8.87;75.32
40872;BME280;26591;43.264;26.940;2022-11-15T08:07:55;99615.16;;;9.07;75.50
40872;BME280;26591;43.264;26.940;2022-11-15T08:10:21;99608.44;;;9.32;75.07
40872;BME280;26591;43.264;26.940;2022-11-15T08:12:46;99606.84;;;9.50;74.68
40872;BME280;26591;43.264;26.940;2022-11-15T08:15:12;99608.81;;;9.48;74.13
40872;BME280;26591;43.264;26.940;2022-11-15T08:17:37;99605.81;;;9.60;73.64
40872;BME280;26591;43.264;26.940;2022-11-15T08:20:03;99608.56;;;9.41;74.34
40872;BME280;26591;43.264;26.940;2022-11-15T08:22:29;99605.69;;;9.62;73.81
40872;BME280;26591;43.264;26.940;2022-11-15T08:24:54;99600.16;;;9.83;73.41
40872;BME280;26591;43.264;26.940;2022-11-15T08:27:20;99597.63;;;10.10;72.68
40872;BME280;26591;43.264;26.940;2022-11-15T08:29:47;99595.84;;;10.10;72.05
40872;BME280;26591;43.264;26.940;2022-11-15T08:32:13;99595.00;;;9.82;72.26
40872;BME280;26591;43.264;26.940;2022-11-15T08:34:38;99587.66;;;9.10;74.53
40872;BME280;26591;43.264;26.940;2022-11-15T08:37:04;99590.44;;;9.08;75.34
40872;BME280;26591;43.264;26.940;2022-11-15T08:39:30;99591.28;;;9.09;75.54
40872;BME280;26591;43.264;26.940;2022-11-15T08:41:55;99585.13;;;9.56;74.92
40872;BME280;26591;43.264;26.940;2022-11-15T08:44:21;99585.03;;;9.75;73.28
40872;BME280;26591;43.264;26.940;2022-11-15T08:46:47;99580.19;;;10.17;72.03
40872;BME280;26591;43.264;26.940;2022-11-15T08:49:12;99577.25;;;10.20;71.09
40872;BME280;26591;43.264;26.940;2022-11-15T08:51:38;99574.00;;;10.44;68.86
40872;BME280;26591;43.264;26.940;2022-11-15T08:54:03;99574.91;;;10.53;68.84
40872;BME280;26591;43.264;26.940;2022-11-15T08:56:29;99565.00;;;10.73;68.39
40872;BME280;26591;43.264;26.940;2022-11-15T08:58:55;99561.78;;;10.61;68.51
40872;BME280;26591;43.264;26.940;2022-11-15T09:01:20;99554.00;;;10.86;66.81
40872;BME280;26591;43.264;26.940;2022-11-15T09:03:46;99546.16;;;10.76;65.24
40872;BME280;26591;43.264;26.940;2022-11-15T09:06:12;99546.16;;;10.76;64.81
40872;BME280;26591;43.264;26.940;2022-11-15T09:08:38;99546.97;;;11.03;63.43
40872;BME280;26591;43.264;26.940;2022-11-15T09:11:08;99536.34;;;11.21;63.21
40872;BME280;26591;43.264;26.940;2022-11-15T09:13:35;99535.75;;;11.44;63.11
40872;BME280;26591;43.264;26.940;2022-11-15T09:16:03;99538.91;;;11.48;62.83
40872;BME280;26591;43.264;26.940;2022-11-15T09:18:29;99528.56;;;11.71;62.14
40872;BME280;26591;43.264;26.940;2022-11-15T09:20:56;99530.94;;;11.82;61.86
40872;BME280;26591;43.264;26.940;2022-11-15T09:23:22;99531.09;;;11.89;61.57
40872;BME280;26591;43.264;26.940;2022-11-15T09:25:48;99524.47;;;11.85;61.67
40872;BME280;26591;43.264;26.940;2022-11-15T09:28:13;99525.94;;;11.79;61.67
40872;BME280;26591;43.264;26.940;2022-11-15T09:30:39;99519.97;;;11.77;61.61
40872;BME280;26591;43.264;26.940;2022-11-15T09:33:09;99526.63;;;11.89;61.38
40872;BME280;26591;43.264;26.940;2022-11-15T09:35:34;99524.22;;;12.04;61.34
40872;BME280;26591;43.264;26.940;2022-11-15T09:38:00;99516.66;;;11.75;61.25
40872;BME280;26591;43.264;26.940;2022-11-15T09:40:26;99513.19;;;11.74;61.78
40872;BME280;26591;43.264;26.940;2022-11-15T09:42:56;99510.84;;;11.80;61.65
40872;BME280;26591;43.264;26.940;2022-11-15T09:48:08;99512.88;;;11.94;61.63
40872;BME280;26591;43.264;26.940;2022-11-15T09:50:42;99502.31;;;12.11;60.87
40872;BME280;26591;43.264;26.940;2022-11-15T09:53:14;99499.34;;;12.05;61.00
40872;BME280;26591;43.264;26.940;2022-11-15T09:56:17;99506.00;;;12.34;60.41
40872;BME280;26591;43.264;26.940;2022-11-15T10:01:56;99500.97;;;11.98;60.37
40872;BME280;26591;43.264;26.940;2022-11-15T10:04:26;99489.19;;;12.01;60.82
40872;BME280;26591;43.264;26.940;2022-11-15T10:07:06;99490.63;;;11.70;60.92
40872;BME280;26591;43.264;26.940;2022-11-15T10:09:42;99490.13;;;11.67;61.61
40872;BME280;26591;43.264;26.940;2022-11-15T10:12:10;99483.84;;;11.17;62.40
40872;BME280;26591;43.264;26.940;2022-11-15T10:14:38;99485.19;;;11.29;62.36
40872;BME280;26591;43.264;26.940;2022-11-15T10:20:21;99472.31;;;11.42;61.51
40872;BME280;26591;43.264;26.940;2022-11-15T10:22:52;99481.50;;;11.22;62.32
40872;BME280;26591;43.264;26.940;2022-11-15T10:25:22;99465.53;;;11.05;62.51
40872;BME280;26591;43.264;26.940;2022-11-15T10:28:15;99455.59;;;10.99;62.62
40872;BME280;26591;43.264;26.940;2022-11-15T10:30:47;99457.19;;;10.83;63.35
40872;BME280;26591;43.264;26.940;2022-11-15T10:33:21;99450.41;;;10.89;63.90
40872;BME280;26591;43.264;26.940;2022-11-15T10:46:43;99435.88;;;10.93;62.30
40872;BME280;26591;43.264;26.940;2022-11-15T10:54:36;99414.81;;;10.83;62.89
40872;BME280;26591;43.264;26.940;2022-11-15T10:57:26;99411.25;;;11.01;62.42
40872;BME280;26591;43.264;26.940;2022-11-15T11:02:39;99405.03;;;10.84;63.27
40872;BME280;26591;43.264;26.940;2022-11-15T11:08:01;99394.44;;;10.49;63.67
40872;BME280;26591;43.264;26.940;2022-11-15T11:10:27;99390.78;;;10.42;65.03
40872;BME280;26591;43.264;26.940;2022-11-15T11:12:53;99384.72;;;10.32;64.49
40872;BME280;26591;43.264;26.940;2022-11-15T11:15:19;99379.94;;;10.53;64.73
40872;BME280;26591;43.264;26.940;2022-11-15T11:18:18;99377.38;;;10.70;63.61
40872;BME280;26591;43.264;26.940;2022-11-15T11:20:51;99377.59;;;10.50;64.13
40872;BME280;26591;43.264;26.940;2022-11-15T11:23:42;99375.63;;;10.52;64.13
40872;BME280;26591;43.264;26.940;2022-11-15T11:26:18;99369.53;;;10.60;64.63
40872;BME280;26591;43.264;26.940;2022-11-15T11:30:11;99358.53;;;10.20;65.80
40872;BME280;26591;43.264;26.940;2022-11-15T11:34:58;99355.06;;;9.93;66.84
40872;BME280;26591;43.264;26.940;2022-11-15T11:37:47;99361.91;;;9.60;67.55
40872;BME280;26591;43.264;26.940;2022-11-15T11:50:41;99339.25;;;10.28;66.13
40872;BME280;26591;43.264;26.940;2022-11-15T11:56:26;99329.97;;;9.53;68.61
40872;BME280;26591;43.264;26.940;2022-11-15T11:58:55;99332.56;;;10.16;66.92
40872;BME280;26591;43.264;26.940;2022-11-15T12:01:26;99322.38;;;10.29;66.48
40872;BME280;26591;43.264;26.940;2022-11-15T12:03:58;99321.56;;;10.29;66.03
40872;BME280;26591;43.264;26.940;2022-11-15T12:09:29;99321.44;;;9.86;67.39
40872;BME280;26591;43.264;26.940;2022-11-15T12:12:23;99316.97;;;10.04;67.29
40872;BME280;26591;43.264;26.940;2022-11-15T12:14:55;99312.59;;;10.48;65.64
40872;BME280;26591;43.264;26.940;2022-11-15T12:17:25;99306.41;;;10.13;65.96
40872;BME280;26591;43.264;26.940;2022-11-15T12:20:00;99298.59;;;10.03;66.17
40872;BME280;26591;43.264;26.940;2022-11-15T12:28:19;99281.13;;;10.96;64.28
40872;BME280;26591;43.264;26.940;2022-11-15T12:31:03;99284.94;;;11.02;64.36
40872;BME280;26591;43.264;26.940;2022-11-15T12:33:55;99290.00;;;10.70;64.71
40872;BME280;26591;43.264;26.940;2022-11-15T12:41:28;99270.50;;;10.71;64.36
40872;BME280;26591;43.264;26.940;2022-11-15T12:43:58;99264.56;;;10.86;64.74
40872;BME280;26591;43.264;26.940;2022-11-15T12:48:59;99262.97;;;11.42;63.05
40872;BME280;26591;43.264;26.940;2022-11-15T12:59:51;99259.16;;;11.28;62.80
40872;BME280;26591;43.264;26.940;2022-11-15T13:04:51;99256.44;;;11.95;60.92
40872;BME280;26591;43.264;26.940;2022-11-15T13:17:51;99228.09;;;12.75;59.86
40872;BME280;26591;43.264;26.940;2022-11-15T13:20:22;99236.34;;;12.80;58.83
40872;BME280;26591;43.264;26.940;2022-11-15T13:30:40;99223.19;;;12.63;58.71
40872;BME280;26591;43.264;26.940;2022-11-15T13:33:41;99218.88;;;12.62;59.04
40872;BME280;26591;43.264;26.940;2022-11-15T13:36:07;99207.66;;;12.75;59.22
40872;BME280;26591;43.264;26.940;2022-11-15T13:38:38;99204.97;;;12.52;59.01
40872;BME280;26591;43.264;26.940;2022-11-15T13:41:21;99210.00;;;12.47;59.49
40872;BME280;26591;43.264;26.940;2022-11-15T13:43:49;99209.16;;;12.46;59.21
40872;BME280;26591;43.264;26.940;2022-11-15T13:46:20;99200.19;;;12.47;59.71
40872;BME280;26591;43.264;26.940;2022-11-15T13:48:51;99202.09;;;12.62;59.43
40872;BME280;26591;43.264;26.940;2022-11-15T13:56:33;99193.69;;;12.50;59.86
40872;BME280;26591;43.264;26.940;2022-11-15T13:59:07;99194.41;;;12.44;59.97
40872;BME280;26591;43.264;26.940;2022-11-15T14:01:33;99187.22;;;12.52;59.75
40872;BME280;26591;43.264;26.940;2022-11-15T14:04:00;99193.59;;;12.66;58.89
40872;BME280;26591;43.264;26.940;2022-11-15T14:06:28;99186.13;;;12.70;58.74
40872;BME280;26591;43.264;26.940;2022-11-15T14:11:35;99185.81;;;12.65;59.26
40872;BME280;26591;43.264;26.940;2022-11-15T14:16:43;99186.41;;;12.75;59.47
40872;BME280;26591;43.264;26.940;2022-11-15T14:24:39;99173.38;;;12.42;60.46
40872;BME280;26591;43.264;26.940;2022-11-15T14:27:22;99166.53;;;12.48;60.17
40872;BME280;26591;43.264;26.940;2022-11-15T14:29:48;99174.84;;;12.45;60.24
40872;BME280;26591;43.264;26.940;2022-11-15T14:32:29;99168.81;;;12.51;59.96
40872;BME280;26591;43.264;26.940;2022-11-15T14:35:01;99165.16;;;12.52;60.18
40872;BME280;26591;43.264;26.940;2022-11-15T14:37:32;99164.16;;;12.53;59.82
40872;BME280;26591;43.264;26.940;2022-11-15T14:40:00;99160.38;;;12.47;60.39
40872;BME280;26591;43.264;26.940;2022-11-15T14:42:26;99154.78;;;12.42;60.35
40872;BME280;26591;43.264;26.940;2022-11-15T14:44:52;99143.66;;;12.39;60.85
40872;BME280;26591;43.264;26.940;2022-11-15T14:47:17;99138.72;;;12.35;60.69
40872;BME280;26591;43.264;26.940;2022-11-15T14:49:44;99137.78;;;12.28;61.08
40872;BME280;26591;43.264;26.940;2022-11-15T14:52:29;99139.56;;;12.04;61.78
40872;BME280;26591;43.264;26.940;2022-11-15T14:54:56;99140.25;;;11.98;61.80
40872;BME280;26591;43.264;26.940;2022-11-15T14:57:23;99139.75;;;11.86;62.18
40872;BME280;26591;43.264;26.940;2022-11-15T14:59:49;99135.81;;;11.74;62.83
40872;BME280;26591;43.264;26.940;2022-11-15T15:02:18;99139.28;;;11.83;62.03
40872;BME280;26591;43.264;26.940;2022-11-15T15:04:43;99137.47;;;11.75;62.89
40872;BME280;26591;43.264;26.940;2022-11-15T15:07:09;99135.50;;;11.77;62.35
40872;BME280;26591;43.264;26.940;2022-11-15T15:09:34;99127.78;;;11.59;62.76
40872;BME280;26591;43.264;26.940;2022-11-15T15:12:00;99123.97;;;11.53;63.20
40872;BME280;26591;43.264;26.940;2022-11-15T15:14:25;99127.13;;;11.49;63.46
40872;BME280;26591;43.264;26.940;2022-11-15T15:16:51;99132.16;;;11.27;64.20